Time;durP1;ratioP1;P1;durP2;ratioP2;P2;SDS_P1;SDS_P2;PMS_P1;PMS_P2;Temp;Humidity;BMP_temperature;BMP_pressure;BME280_temperature;BME280_humidity;BME280_pressure;Samples;Min_cycle;Max_cycle;Signal;HPM_P1;HPM_P2
2023/09/20 00:01:26;;;;;;;0.28;0.22;;;;;;;20.70;72.63;99961.78;4916111;29;20056;-64
2023/09/20 00:03:51;;;;;;;2.17;0.13;;;;;;;20.77;72.52;99958.81;4907845;29;20040;-64
2023/09/20 00:06:18;;;;;;;0.57;0.50;;;;;;;20.72;73.07;99955.88;4913165;29;20552;-65
2023/09/20 00:08:47;;;;;;;0.50;0.20;;;;;;;20.78;72.80;99974.03;4914787;29;20032;-65
2023/09/20 00:11:15;;;;;;;0.35;0.30;;;;;;;20.77;72.83;99955.31;4916589;29;20076;-64
2023/09/20 00:13:44;;;;;;;0.10;0.10;;;;;;;20.73;72.90;99957.41;4915209;29;20430;-64
2023/09/20 00:16:10;;;;;;;2.47;0.70;;;;;;;20.67;73.45;99949.00;4912832;29;20039;-66
2023/09/20 00:18:36;;;;;;;0.30;0.25;;;;;;;20.72;73.38;99962.13;4912751;29;20032;-64
2023/09/20 00:21:01;;;;;;;1.48;0.30;;;;;;;20.72;73.32;99959.38;4919045;29;20060;-65
2023/09/20 00:23:30;;;;;;;0.65;0.32;;;;;;;20.76;73.21;99956.53;4915541;29;20091;-64
2023/09/20 00:25:57;;;;;;;0.32;0.13;;;;;;;20.80;72.85;99952.47;4914936;29;20051;-64
2023/09/20 00:28:23;;;;;;;2.78;0.47;;;;;;;20.73;73.26;99949.94;4916570;29;20032;-64
2023/09/20 00:30:48;;;;;;;0.55;0.17;;;;;;;20.84;72.82;99944.91;4899245;29;20047;-66
2023/09/20 00:33:15;;;;;;;0.50;0.20;;;;;;;20.85;72.71;99957.38;4910963;29;20039;-66
2023/09/20 00:35:40;;;;;;;0.20;0.20;;;;;;;20.80;72.80;99948.97;4913772;29;20509;-64
2023/09/20 00:38:07;;;;;;;0.98;0.30;;;;;;;20.80;72.68;99947.00;4913112;29;20111;-66
2023/09/20 00:40:34;;;;;;;1.00;0.35;;;;;;;20.81;72.91;99954.00;4930277;29;20028;-65
2023/09/20 00:43:03;;;;;;;0.85;0.28;;;;;;;20.84;72.83;99950.38;4913034;29;20059;-65
2023/09/20 00:45:29;;;;;;;0.22;0.22;;;;;;;20.89;72.55;99943.56;4915898;29;20044;-65
2023/09/20 00:47:58;;;;;;;0.20;0.20;;;;;;;20.88;72.61;99958.47;4914169;29;20039;-65
2023/09/20 00:50:29;;;;;;;0.93;0.38;;;;;;;20.65;73.65;99963.09;4914750;29;20032;-64
2023/09/20 00:52:56;;;;;;;0.47;0.30;;;;;;;20.76;73.10;99953.78;4909700;29;20044;-64
2023/09/20 00:55:25;;;;;;;0.65;0.50;;;;;;;20.58;73.94;99962.56;4915028;29;20291;-65
2023/09/20 00:58:04;;;;;;;0.15;0.10;;;;;;;20.73;73.51;99962.88;4915414;29;20024;-65
2023/09/20 01:00:32;;;;;;;0.57;0.30;;;;;;;20.78;73.28;99960.34;4911273;29;20059;-65
2023/09/20 01:03:00;;;;;;;0.40;0.15;;;;;;;20.89;73.04;99962.72;4912980;29;20119;-64
2023/09/20 01:05:26;;;;;;;0.20;0.20;;;;;;;20.88;73.01;99953.78;4910171;29;20052;-65
2023/09/20 01:07:56;;;;;;;0.30;0.30;;;;;;;20.89;72.67;99949.81;4915285;29;20084;-66
2023/09/20 01:10:25;;;;;;;0.20;0.10;;;;;;;20.80;73.28;99941.53;4916869;29;20168;-65
2023/09/20 01:12:54;;;;;;;0.20;0.20;;;;;;;20.85;73.32;99956.63;4912748;29;20032;-64
2023/09/20 01:15:20;;;;;;;0.30;0.25;;;;;;;20.87;73.13;99952.22;4913447;29;20172;-64
2023/09/20 01:17:50;;;;;;;0.38;0.35;;;;;;;20.93;72.90;99953.19;4914227;29;20489;-64
2023/09/20 01:20:20;;;;;;;1.02;0.35;;;;;;;20.93;72.75;99958.69;4907753;29;20039;-63
2023/09/20 01:22:51;;;;;;;2.80;0.38;;;;;;;20.98;72.66;99957.38;4911646;29;20040;-65
2023/09/20 01:25:31;;;;;;;0.80;0.40;;;;;;;20.80;73.40;99947.00;4913382;29;20087;-65
2023/09/20 01:27:58;;;;;;;0.70;0.45;;;;;;;20.81;73.45;99964.19;4913060;29;20035;-65
2023/09/20 01:30:29;;;;;;;2.92;0.32;;;;;;;20.84;73.18;99958.59;4928597;29;20036;-64
2023/09/20 01:32:56;;;;;;;0.52;0.30;;;;;;;20.80;73.55;99952.47;4913812;29;20050;-64
2023/09/20 01:35:24;;;;;;;1.05;0.30;;;;;;;20.79;73.44;99948.19;4911336;29;20408;-65
2023/09/20 01:37:50;;;;;;;0.38;0.10;;;;;;;20.83;73.71;99951.56;4912941;29;20375;-64
2023/09/20 01:40:15;;;;;;;0.17;0.15;;;;;;;20.75;73.65;99953.00;4914723;29;20051;-65
2023/09/20 01:42:51;;;;;;;0.30;0.20;;;;;;;20.73;74.03;99960.16;4913872;29;20028;-66
2023/09/20 01:45:18;;;;;;;0.35;0.35;;;;;;;20.82;73.65;99950.06;4914291;29;20122;-63
2023/09/20 01:47:52;;;;;;;0.73;0.30;;;;;;;20.85;73.53;99951.16;4914936;29;20036;-65
2023/09/20 01:50:23;;;;;;;0.63;0.25;;;;;;;20.66;74.39;99955.66;4914187;29;20127;-66
2023/09/20 01:52:49;;;;;;;0.60;0.32;;;;;;;20.72;74.28;99953.91;4912280;29;20039;-64
2023/09/20 01:55:21;;;;;;;1.08;0.38;;;;;;;20.74;74.08;99959.69;4914894;29;20477;-64
2023/09/20 01:57:50;;;;;;;;;;;;;;;20.67;74.09;99963.44;4929321;29;20040;-65
2023/09/20 02:00:22;;;;;;;1.15;0.47;;;;;;;20.73;73.91;99955.41;4912983;29;19919;-66
2023/09/20 02:02:54;;;;;;;1.08;0.30;;;;;;;20.68;74.22;99959.50;4912919;29;20032;-64
2023/09/20 02:05:20;;;;;;;2.83;0.65;;;;;;;20.78;73.47;99960.34;4912103;29;20032;-65
2023/09/20 02:07:49;;;;;;;0.55;0.30;;;;;;;20.81;73.19;99959.47;4913769;29;20028;-65
2023/09/20 02:10:16;;;;;;;0.65;0.20;;;;;;;20.87;73.31;99960.44;4913185;29;20028;-65
2023/09/20 02:12:53;;;;;;;0.40;0.30;;;;;;;20.80;73.58;99957.16;4913191;29;20035;-66
2023/09/20 02:15:21;;;;;;;0.50;0.35;;;;;;;20.84;73.38;99961.34;4912932;29;20042;-65
2023/09/20 02:17:47;;;;;;;0.68;0.43;;;;;;;20.85;73.20;99973.81;4913289;29;20020;-65
2023/09/20 02:20:24;;;;;;;0.47;0.40;;;;;;;20.82;73.43;99971.97;4912947;29;20036;-65
2023/09/20 02:22:53;;;;;;;1.42;0.63;;;;;;;20.82;73.36;99963.75;4911172;29;20103;-64
2023/09/20 02:25:21;;;;;;;0.88;0.40;;;;;;;20.71;73.11;99970.78;4912967;29;20024;-64
2023/09/20 02:27:53;;;;;;;0.65;0.52;;;;;;;20.80;73.28;99984.53;4913757;29;20056;-64
2023/09/20 02:30:27;;;;;;;;;;;;;;;20.79;73.15;99964.59;4912320;29;20050;-65
2023/09/20 02:32:54;;;;;;;0.82;0.35;;;;;;;20.87;73.05;99973.34;4908713;29;19915;-66
2023/09/20 02:35:20;;;;;;;0.32;0.32;;;;;;;20.83;73.24;99968.00;4913953;29;20040;-66
2023/09/20 02:37:48;;;;;;;0.82;0.45;;;;;;;20.87;73.24;99971.38;4912927;29;20153;-66
2023/09/20 02:40:14;;;;;;;1.98;0.50;;;;;;;20.67;73.97;99971.63;4912985;29;20036;-65
2023/09/20 02:42:44;;;;;;;1.52;0.30;;;;;;;20.71;74.05;99968.81;4912386;29;20035;-65
2023/09/20 02:45:33;;;;;;;0.32;0.32;;;;;;;20.79;73.70;99966.59;4927752;29;20497;-65
2023/09/20 02:48:01;;;;;;;0.50;0.30;;;;;;;20.81;73.68;99962.19;4853366;29;20158;-67
2023/09/20 02:50:27;;;;;;;2.22;0.77;;;;;;;20.70;74.20;99964.53;4855016;29;20407;-66
2023/09/20 02:52:53;;;;;;;1.15;0.30;;;;;;;20.79;73.81;99961.88;4854119;29;20060;-66
2023/09/20 02:55:22;;;;;;;0.32;0.30;;;;;;;20.73;74.02;99968.34;4855101;29;20525;-66
2023/09/20 02:57:54;;;;;;;0.95;0.60;;;;;;;20.70;74.13;99967.25;4839955;29;20125;-66
2023/09/20 03:00:27;;;;;;;0.50;0.40;;;;;;;20.69;74.15;99969.22;4852348;29;20041;-65
2023/09/20 03:03:00;;;;;;;0.55;0.47;;;;;;;20.68;74.53;99954.03;4856435;29;20045;-64
2023/09/20 03:05:28;;;;;;;1.02;0.95;;;;;;;20.71;74.27;99955.13;4852658;29;20049;-64
2023/09/20 03:07:55;;;;;;;0.30;0.28;;;;;;;20.75;74.22;99955.75;4837077;29;20045;-66
2023/09/20 03:10:21;;;;;;;2.63;0.73;;;;;;;20.73;74.53;99963.63;4860102;29;20029;-64
2023/09/20 03:12:51;;;;;;;0.35;0.28;;;;;;;20.74;74.46;99959.69;4842597;29;20746;-64
2023/09/20 03:15:43;;;;;;;3.22;0.60;;;;;;;20.81;74.20;99964.19;4857232;29;20041;-65
2023/09/20 03:18:13;;;;;;;0.25;0.25;;;;;;;20.79;74.61;99959.13;4857397;29;20049;-64
2023/09/20 03:20:43;;;;;;;2.28;0.30;;;;;;;20.68;74.75;99962.22;4854630;29;20045;-65
2023/09/20 03:23:09;;;;;;;0.70;0.30;;;;;;;20.78;74.35;99971.31;4852773;29;20045;-65
2023/09/20 03:25:37;;;;;;;0.55;0.32;;;;;;;20.73;74.74;99960.91;4886612;29;20055;-65
2023/09/20 03:28:09;;;;;;;0.73;0.47;;;;;;;20.77;74.87;99950.59;4895244;29;20418;-64
2023/09/20 03:30:39;;;;;;;0.55;0.30;;;;;;;20.80;74.41;99955.22;4889425;29;20028;-63
2023/09/20 03:33:11;;;;;;;3.40;0.50;;;;;;;20.89;73.74;99949.03;4897310;29;20032;-66
2023/09/20 03:35:37;;;;;;;2.88;0.43;;;;;;;20.83;74.48;99951.56;4894287;29;20781;-64
2023/09/20 03:38:03;;;;;;;1.40;0.57;;;;;;;20.75;74.48;99950.28;4894772;29;20036;-64
2023/09/20 03:40:30;;;;;;;1.17;0.70;;;;;;;20.68;75.39;99962.22;4886755;29;20063;-64
2023/09/20 03:43:02;;;;;;;0.43;0.30;;;;;;;20.69;75.25;99950.06;4899222;29;20048;-64
2023/09/20 03:45:28;;;;;;;1.15;0.40;;;;;;;20.65;75.93;99952.16;4903987;29;20077;-65
2023/09/20 03:47:56;;;;;;;0.40;0.40;;;;;;;20.71;75.75;99949.66;4898169;29;20032;-65
2023/09/20 03:50:23;;;;;;;0.50;0.30;;;;;;;20.76;75.38;99949.09;4895637;29;20545;-65
2023/09/20 03:52:49;;;;;;;0.60;0.40;;;;;;;20.70;75.45;99950.84;4897083;29;20032;-64
2023/09/20 03:55:35;;;;;;;1.75;0.60;;;;;;;20.59;76.23;99947.69;4905273;29;20437;-64
2023/09/20 03:58:03;;;;;;;3.03;0.43;;;;;;;20.61;76.00;99951.50;4856458;29;20168;-64
2023/09/20 04:00:31;;;;;;;1.15;0.55;;;;;;;20.68;76.08;99951.28;4841726;29;20057;-65
2023/09/20 04:02:58;;;;;;;0.45;0.20;;;;;;;20.68;75.63;99948.53;4838051;29;20054;-65
2023/09/20 04:05:25;;;;;;;0.52;0.43;;;;;;;20.70;75.90;99953.56;4840146;29;20066;-64
2023/09/20 04:07:50;;;;;;;1.27;0.60;;;;;;;20.72;75.80;99953.91;4857809;29;20033;-65
2023/09/20 04:10:36;;;;;;;0.98;0.60;;;;;;;20.79;75.52;99959.13;4838461;29;20125;-64
2023/09/20 04:13:02;;;;;;;1.83;0.60;;;;;;;20.78;75.41;99954.88;4801016;29;20488;-65
2023/09/20 04:15:29;;;;;;;2.42;0.80;;;;;;;20.75;75.46;99955.75;4786938;29;20046;-64
2023/09/20 04:17:54;;;;;;;1.17;0.40;;;;;;;20.55;76.25;99956.00;4785795;29;20431;-65
2023/09/20 04:20:20;;;;;;;0.90;0.60;;;;;;;20.62;76.12;99947.56;4802506;29;20130;-65
2023/09/20 04:22:47;;;;;;;0.70;0.50;;;;;;;20.59;76.10;99948.47;4798715;29;20074;-65
2023/09/20 04:25:13;;;;;;;1.40;0.45;;;;;;;20.68;76.01;99956.75;4783774;29;20150;-66
2023/09/20 04:27:41;;;;;;;0.35;0.30;;;;;;;20.77;75.61;99953.34;4802809;29;20046;-66
2023/09/20 04:30:08;;;;;;;1.50;0.55;;;;;;;20.75;75.56;99955.00;4787459;29;20058;-66
2023/09/20 04:32:40;;;;;;;1.10;0.45;;;;;;;20.74;75.64;99948.75;4784985;29;20134;-66
2023/09/20 04:35:08;;;;;;;1.00;0.45;;;;;;;20.65;76.04;99956.88;4831538;29;20048;-65
2023/09/20 04:37:34;;;;;;;1.10;0.50;;;;;;;20.68;75.94;99959.50;4865991;29;20384;-66
2023/09/20 04:40:00;;;;;;;0.32;0.30;;;;;;;20.63;76.14;99953.81;4836977;29;20589;-64
2023/09/20 04:42:33;;;;;;;1.40;0.50;;;;;;;20.57;76.24;99961.81;4864888;29;20055;-65
2023/09/20 04:44:59;;;;;;;1.15;0.43;;;;;;;20.68;75.59;99958.72;4857958;29;20029;-65
2023/09/20 04:47:25;;;;;;;2.67;0.40;;;;;;;20.69;75.47;99952.06;4872854;29;20501;-65
2023/09/20 04:49:52;;;;;;;0.57;0.50;;;;;;;20.68;75.38;99948.53;4869428;29;20044;-66
2023/09/20 04:52:17;;;;;;;1.27;0.55;;;;;;;20.54;75.76;99951.72;4910926;29;20028;-66
2023/09/20 04:54:44;;;;;;;2.17;0.47;;;;;;;20.66;75.76;99948.22;4913720;29;20036;-65
2023/09/20 04:57:12;;;;;;;0.85;0.50;;;;;;;20.69;75.66;99944.59;4913835;29;20462;-66
2023/09/20 04:59:41;;;;;;;1.52;0.65;;;;;;;20.63;75.84;99948.34;4913778;29;20039;-64
2023/09/20 05:02:08;;;;;;;1.05;0.50;;;;;;;20.69;75.50;99946.59;4908959;29;20051;-65
2023/09/20 05:04:35;;;;;;;0.43;0.32;;;;;;;20.79;74.81;99953.66;4905959;29;20032;-65
2023/09/20 05:07:26;;;;;;;0.85;0.50;;;;;;;20.75;75.00;99952.25;4907377;29;20205;-64
2023/09/20 05:09:53;;;;;;;1.15;0.40;;;;;;;20.77;75.07;99956.06;4871777;29;20721;-66
2023/09/20 05:12:18;;;;;;;1.73;0.57;;;;;;;20.64;75.97;99949.84;4887484;29;20040;-66
2023/09/20 05:14:45;;;;;;;1.25;0.80;;;;;;;20.71;75.24;99955.13;4891502;29;20041;-65
2023/09/20 05:17:11;;;;;;;0.28;0.28;;;;;;;20.68;75.20;99954.03;4889696;29;20165;-65
2023/09/20 05:19:36;;;;;;;1.33;0.68;;;;;;;20.67;75.39;99951.72;4889545;29;20040;-64
2023/09/20 05:22:03;;;;;;;1.35;0.65;;;;;;;20.71;75.25;99960.59;4879354;29;20430;-66
2023/09/20 05:24:30;;;;;;;1.00;0.65;;;;;;;20.63;75.22;99954.56;4880245;29;20047;-66
2023/09/20 05:26:56;;;;;;;1.00;0.55;;;;;;;20.71;75.01;99951.63;4885240;29;20424;-64
2023/09/20 05:29:21;;;;;;;0.95;0.50;;;;;;;20.71;75.22;99955.13;4876189;29;20033;-64
2023/09/20 05:31:47;;;;;;;0.63;0.30;;;;;;;20.77;75.06;99967.03;4880658;29;20056;-66
2023/09/20 05:34:12;;;;;;;0.60;0.28;;;;;;;20.77;75.18;99961.53;4888517;29;20096;-65
2023/09/20 05:36:38;;;;;;;0.82;0.50;;;;;;;20.72;75.44;99953.91;4887723;29;20981;-66
2023/09/20 05:39:06;;;;;;;0.93;0.65;;;;;;;20.82;75.18;99961.00;4893082;29;20128;-66
2023/09/20 05:41:33;;;;;;;0.77;0.47;;;;;;;20.82;74.91;99960.22;4890547;29;20068;-67
2023/09/20 05:43:59;;;;;;;1.17;0.68;;;;;;;20.87;74.77;99965.91;4891612;29;20048;-66
2023/09/20 05:46:25;;;;;;;1.30;0.52;;;;;;;20.78;75.00;99954.88;4889750;29;20068;-65
2023/09/20 05:48:51;;;;;;;2.40;0.70;;;;;;;20.78;75.14;99949.41;4903463;29;20043;-64
2023/09/20 05:51:17;;;;;;;0.82;0.47;;;;;;;20.68;75.70;99956.00;4905245;29;20142;-65
2023/09/20 05:53:43;;;;;;;2.95;0.40;;;;;;;20.71;75.64;99966.06;4911990;29;20040;-65
2023/09/20 05:56:10;;;;;;;2.80;0.80;;;;;;;20.81;75.14;99964.94;4913727;29;20884;-65
2023/09/20 05:58:40;;;;;;;0.55;0.32;;;;;;;20.81;75.19;99956.72;4910608;29;20036;-66
2023/09/20 06:01:09;;;;;;;2.20;0.57;;;;;;;20.67;75.96;99959.94;4910091;29;20063;-65
2023/09/20 06:03:35;;;;;;;0.63;0.40;;;;;;;20.67;76.03;99965.41;4919146;29;20040;-65
2023/09/20 06:06:01;;;;;;;2.05;0.88;;;;;;;20.77;75.51;99964.28;4919904;29;20055;-66
2023/09/20 06:08:26;;;;;;;0.30;0.20;;;;;;;20.82;75.71;99968.44;4919723;29;20068;-65
2023/09/20 06:10:53;;;;;;;1.95;0.60;;;;;;;20.84;75.60;99966.81;4916070;29;20055;-66
2023/09/20 06:13:19;;;;;;;1.02;0.50;;;;;;;20.88;75.76;99963.94;4915579;29;20028;-66
2023/09/20 06:15:44;;;;;;;0.95;0.45;;;;;;;20.80;75.79;99962.66;4914307;29;20043;-66
2023/09/20 06:18:10;;;;;;;0.95;0.47;;;;;;;20.93;75.46;99977.06;4915630;29;20039;-64
2023/09/20 06:20:36;;;;;;;1.33;0.50;;;;;;;21.04;74.63;99975.53;4914694;29;20039;-66
2023/09/20 06:23:03;;;;;;;1.38;0.47;;;;;;;21.06;74.53;99977.84;4912134;29;20044;-66
2023/09/20 06:25:29;;;;;;;2.92;0.60;;;;;;;20.99;74.75;99978.81;4910521;29;20036;-65
2023/09/20 06:27:55;;;;;;;4.50;0.77;;;;;;;21.00;75.19;99977.59;4912578;29;20028;-65
2023/09/20 06:30:21;;;;;;;0.65;0.28;;;;;;;21.17;74.83;99965.34;4906776;29;20034;-66
2023/09/20 06:32:48;;;;;;;4.10;0.70;;;;;;;21.26;74.19;99967.38;4912922;29;20115;-66
2023/09/20 06:35:19;;;;;;;1.10;0.57;;;;;;;21.31;73.89;99984.00;4903368;29;20394;-66
2023/09/20 06:37:47;;;;;;;0.65;0.40;;;;;;;21.35;74.30;99984.66;4911473;29;20513;-65
2023/09/20 06:40:22;;;;;;;2.90;0.63;;;;;;;21.43;73.59;99980.44;4914783;29;20031;-66
2023/09/20 06:42:52;;;;;;;0.73;0.52;;;;;;;21.31;73.89;99988.75;4912123;29;20040;-66
2023/09/20 06:45:18;;;;;;;1.88;0.60;;;;;;;21.37;73.75;99978.72;4915585;29;20039;-66
2023/09/20 06:47:45;;;;;;;0.40;0.30;;;;;;;21.26;74.19;99990.06;4912387;29;20445;-65
2023/09/20 06:50:13;;;;;;;2.80;0.40;;;;;;;21.37;73.92;99992.41;4915728;29;20024;-66
2023/09/20 06:52:39;;;;;;;0.95;0.47;;;;;;;21.37;73.83;99993.19;4914655;29;20114;-66
2023/09/20 06:55:05;;;;;;;4.10;0.80;;;;;;;21.43;73.69;99998.88;4916614;29;20067;-66
2023/09/20 06:57:30;;;;;;;2.08;0.52;;;;;;;21.39;73.55;99995.47;4926123;29;20036;-66
2023/09/20 06:59:57;;;;;;;1.45;0.70;;;;;;;21.40;73.93;100008.75;4911807;29;20032;-66
2023/09/20 07:02:24;;;;;;;0.98;0.60;;;;;;;21.32;73.57;100012.19;4908128;29;20054;-65
2023/09/20 07:04:49;;;;;;;1.90;0.73;;;;;;;21.32;74.10;100001.22;4908674;29;20040;-66
2023/09/20 07:07:16;;;;;;;0.22;0.22;;;;;;;21.28;74.52;100008.78;4913596;29;20043;-66
2023/09/20 07:09:43;;;;;;;1.95;0.50;;;;;;;21.26;74.80;100006.50;4912322;29;20040;-66
2023/09/20 07:12:10;;;;;;;1.65;0.57;;;;;;;21.26;75.03;100013.94;4909412;29;20112;-64
2023/09/20 07:14:35;;;;;;;3.00;0.77;;;;;;;21.42;73.92;100002.81;4909518;29;20052;-66
2023/09/20 07:17:01;;;;;;;2.42;0.32;;;;;;;21.13;75.23;100003.03;4916386;29;20072;-65
2023/09/20 07:19:35;;;;;;;1.27;0.68;;;;;;;21.27;74.61;100013.50;4910903;29;20123;-64
2023/09/20 07:22:01;;;;;;;1.45;0.57;;;;;;;21.36;74.90;100021.03;4905510;29;20529;-65
2023/09/20 07:24:26;;;;;;;0.85;0.30;;;;;;;21.39;74.66;100015.44;4912204;29;20044;-64
2023/09/20 07:26:52;;;;;;;0.63;0.60;;;;;;;21.41;74.47;100010.28;4910033;29;20645;-66
2023/09/20 07:29:18;;;;;;;0.63;0.63;;;;;;;21.23;75.02;100015.63;4910800;29;20039;-65
2023/09/20 07:31:45;;;;;;;1.23;0.73;;;;;;;21.33;74.50;100019.19;4911581;29;20691;-66
2023/09/20 07:34:13;;;;;;;1.95;0.40;;;;;;;21.34;74.76;100007.03;4912828;29;20492;-66
2023/09/20 07:36:43;;;;;;;0.40;0.40;;;;;;;21.33;74.51;100014.47;4912316;29;20043;-66
2023/09/20 07:39:12;;;;;;;0.57;0.57;;;;;;;21.37;74.33;100017.06;4911926;29;20040;-64
2023/09/20 07:41:50;;;;;;;3.22;0.80;;;;;;;21.32;74.13;100012.94;4906237;29;20028;-65
2023/09/20 07:44:23;;;;;;;1.70;0.60;;;;;;;21.37;74.02;100015.09;4929321;29;20051;-66
2023/09/20 07:46:52;;;;;;;2.55;0.85;;;;;;;21.40;74.15;100021.69;4911988;29;20091;-64
2023/09/20 07:49:21;;;;;;;2.05;0.65;;;;;;;21.31;74.76;100014.13;4903154;29;20076;-64
2023/09/20 07:51:48;;;;;;;1.08;0.60;;;;;;;21.34;73.92;100010.53;4913236;29;20043;-63
2023/09/20 07:54:14;;;;;;;1.35;0.50;;;;;;;21.48;73.66;100009.28;4907003;29;20075;-65
2023/09/20 07:56:43;;;;;;;2.05;0.90;;;;;;;21.57;73.87;100014.81;4913992;29;20068;-63
2023/09/20 07:59:13;;;;;;;1.88;0.80;;;;;;;21.58;73.91;100013.63;4904335;29;20378;-64
2023/09/20 08:01:41;;;;;;;0.40;0.40;;;;;;;21.78;73.08;100014.06;4899555;29;20044;-64
2023/09/20 08:04:06;;;;;;;1.55;0.50;;;;;;;21.84;73.30;100012.31;4904573;29;20115;-64
2023/09/20 08:06:34;;;;;;;3.42;0.68;;;;;;;21.99;72.94;100007.84;4904104;29;20077;-63
2023/09/20 08:09:00;;;;;;;1.27;0.40;;;;;;;22.27;71.67;100017.75;4913326;29;20034;-63
2023/09/20 08:11:27;;;;;;;0.95;0.40;;;;;;;22.32;71.63;100036.38;4910879;29;20107;-65
2023/09/20 08:13:54;;;;;;;0.38;0.20;;;;;;;22.47;71.55;100031.13;4910914;29;20096;-63
2023/09/20 08:16:21;;;;;;;2.55;0.65;;;;;;;22.60;70.45;100033.78;4911200;29;20490;-65
2023/09/20 08:21:35;;;;;;;1.27;0.40;;;;;;;22.65;69.53;100028.47;4906522;29;20543;-65
2023/09/20 09:00:21;;;;;;;1.17;0.60;;;;;;;24.73;62.54;100030.47;4909076;29;20060;-64
2023/09/20 09:02:51;;;;;;;1.30;0.50;;;;;;;24.86;61.09;100023.50;4910442;29;20528;-66
2023/09/20 09:05:20;;;;;;;2.63;0.50;;;;;;;25.19;61.10;100026.22;4913930;29;20044;-64
2023/09/20 09:07:46;;;;;;;2.20;0.45;;;;;;;25.36;61.10;100021.06;4913873;29;20036;-64
2023/09/20 09:10:13;;;;;;;4.07;0.47;;;;;;;25.56;60.40;100032.25;4911797;29;20099;-64
2023/09/20 09:12:38;;;;;;;0.70;0.40;;;;;;;25.71;59.17;100028.28;4909451;29;20083;-64
2023/09/20 09:15:08;;;;;;;1.05;0.40;;;;;;;25.42;58.86;100024.69;4909783;29;20036;-64
2023/09/20 09:17:39;;;;;;;1.10;0.28;;;;;;;25.30;59.33;100031.22;4910753;29;20556;-64
2023/09/20 09:20:09;;;;;;;1.55;0.40;;;;;;;25.06;60.28;100028.44;4914621;29;20437;-64
2023/09/20 09:22:35;;;;;;;0.57;0.40;;;;;;;24.99;61.43;100026.03;4911909;29;20039;-64
2023/09/20 09:25:00;;;;;;;0.70;0.28;;;;;;;25.05;60.96;100013.91;4911056;29;20024;-64
2023/09/20 09:27:25;;;;;;;0.60;0.45;;;;;;;24.96;61.58;100024.97;4908435;29;20450;-65
2023/09/20 09:29:51;;;;;;;1.85;0.30;;;;;;;24.99;60.29;100026.78;4911884;29;20032;-64
2023/09/20 09:32:17;;;;;;;0.43;0.40;;;;;;;24.86;60.49;100039.25;4921756;29;20036;-63
2023/09/20 09:34:43;;;;;;;0.52;0.40;;;;;;;24.72;60.99;100034.44;4914349;29;20509;-64
2023/09/20 09:37:11;;;;;;;3.58;0.45;;;;;;;24.42;61.87;100027.97;4910120;29;20123;-64
2023/09/20 09:39:36;;;;;;;1.65;0.50;;;;;;;24.42;62.48;100035.44;4910368;29;20040;-64
2023/09/20 09:42:02;;;;;;;0.73;0.35;;;;;;;24.22;63.85;100033.22;4912912;29;20083;-63
2023/09/20 09:44:28;;;;;;;3.47;0.30;;;;;;;24.26;65.10;100031.06;4913249;29;20122;-64
2023/09/20 09:46:54;;;;;;;1.92;0.40;;;;;;;24.39;65.43;100031.63;4910614;29;20036;-64
2023/09/20 09:49:20;;;;;;;0.25;0.20;;;;;;;24.25;64.61;100032.31;4913623;29;20036;-63
2023/09/20 09:51:53;;;;;;;1.08;0.52;;;;;;;24.29;64.49;100024.66;4907829;29;20044;-67
2023/09/20 09:54:20;;;;;;;2.40;0.88;;;;;;;24.39;63.91;100026.13;4911524;29;20036;-65
2023/09/20 09:56:46;;;;;;;2.55;0.52;;;;;;;24.44;64.74;100038.50;4912284;29;20032;-65
2023/09/20 09:59:12;;;;;;;2.60;0.43;;;;;;;24.62;63.70;100033.69;4916932;29;20043;-65
2023/09/20 10:01:39;;;;;;;4.20;0.70;;;;;;;24.76;63.26;100043.28;4912018;29;20056;-65
2023/09/20 10:04:07;;;;;;;0.77;0.30;;;;;;;24.62;62.74;100041.19;4910788;29;20042;-64
2023/09/20 10:07:08;;;;;;;0.82;0.50;;;;;;;24.67;62.48;100033.06;4905186;29;20179;-66
2023/09/20 10:09:39;;;;;;;0.47;0.30;;;;;;;24.61;63.34;100031.41;4923131;29;20071;-65
2023/09/20 10:12:07;;;;;;;0.80;0.40;;;;;;;24.70;62.30;100023.84;4899142;29;20087;-64
2023/09/20 10:14:36;;;;;;;1.20;0.57;;;;;;;24.61;63.06;100023.91;4913588;29;20028;-65
2023/09/20 10:17:21;;;;;;;1.60;0.63;;;;;;;24.71;62.88;100024.63;4910639;29;20087;-64
2023/09/20 10:19:52;;;;;;;0.93;0.45;;;;;;;24.75;62.27;100033.50;4912354;29;20056;-64
2023/09/20 10:22:19;;;;;;;3.00;0.52;;;;;;;24.75;62.20;100034.28;4906241;29;20040;-65
2023/09/20 10:24:55;;;;;;;0.73;0.30;;;;;;;24.63;62.87;100032.47;4910555;29;20032;-65
2023/09/20 10:27:22;;;;;;;1.42;0.55;;;;;;;24.70;62.53;100023.84;4913300;29;20494;-65
2023/09/20 10:30:09;;;;;;;0.77;0.47;;;;;;;24.56;62.10;100030.06;4909431;29;20568;-64
2023/09/20 10:32:56;;;;;;;0.50;0.38;;;;;;;24.65;62.41;100027.25;4910270;29;20481;-64
2023/09/20 10:35:33;;;;;;;5.57;1.08;;;;;;;24.77;61.38;100017.28;4910424;29;20032;-65
2023/09/20 10:38:04;;;;;;;1.00;0.57;;;;;;;24.70;63.12;100026.59;4912522;29;20058;-65
2023/09/20 10:40:45;;;;;;;0.63;0.43;;;;;;;24.87;62.79;100049.06;4913176;29;20035;-65
2023/09/20 10:43:36;;;;;;;1.52;0.63;;;;;;;25.18;60.08;100035.72;4921293;29;20081;-64
2023/09/20 10:46:14;;;;;;;4.05;0.75;;;;;;;25.09;59.10;100035.03;4926933;29;20036;-64
2023/09/20 10:48:51;;;;;;;1.05;0.52;;;;;;;25.14;60.05;100029.63;4913034;29;20430;-65
2023/09/20 10:51:38;;;;;;;3.35;0.32;;;;;;;25.30;61.45;100026.44;4906928;29;20047;-66
2023/09/20 10:54:17;;;;;;;1.80;0.73;;;;;;;25.49;59.84;100040.91;4908990;29;20519;-65
2023/09/20 10:56:52;;;;;;;1.75;0.77;;;;;;;25.46;59.56;100031.56;4907493;29;20051;-66
2023/09/20 10:59:22;;;;;;;1.17;0.47;;;;;;;25.29;59.19;100035.94;4911782;29;20054;-65
2023/09/20 11:01:56;;;;;;;0.40;0.30;;;;;;;25.14;58.99;100042.63;4903911;29;20529;-66
2023/09/20 11:04:22;;;;;;;4.00;0.60;;;;;;;25.28;60.02;100039.19;4908943;29;20064;-65
2023/09/20 11:06:48;;;;;;;1.63;0.88;;;;;;;25.39;59.68;100039.41;4924247;29;20071;-67
2023/09/20 11:09:15;;;;;;;2.58;0.75;;;;;;;25.57;58.53;100039.31;4905852;29;21129;-65
2023/09/20 11:11:42;;;;;;;1.23;0.45;;;;;;;25.62;58.73;100025.63;4902375;29;20099;-65
2023/09/20 11:14:08;;;;;;;1.75;0.80;;;;;;;25.73;60.13;100031.34;4909195;29;20095;-66
2023/09/20 11:16:34;;;;;;;0.73;0.50;;;;;;;25.78;59.58;100029.94;4925281;29;20032;-65
2023/09/20 11:19:00;;;;;;;2.83;0.85;;;;;;;25.83;59.76;100032.78;4909801;29;20079;-64
2023/09/20 11:21:26;;;;;;;0.70;0.45;;;;;;;25.71;60.08;100028.28;4912025;29;20051;-64
2023/09/20 11:23:51;;;;;;;2.00;0.73;;;;;;;25.70;59.79;100032.28;4912174;29;20040;-64
2023/09/20 11:26:29;;;;;;;1.23;0.57;;;;;;;25.43;61.16;100026.22;4916066;29;20110;-64
2023/09/20 11:29:16;;;;;;;1.33;0.63;;;;;;;25.58;60.68;100030.56;4915218;29;20032;-64
2023/09/20 11:31:44;;;;;;;1.77;0.70;;;;;;;25.63;60.26;100020.84;4856908;29;20111;-65
2023/09/20 11:34:10;;;;;;;2.70;0.80;;;;;;;25.56;59.94;100013.72;4856679;29;20496;-64
2023/09/20 11:36:37;;;;;;;1.10;0.60;;;;;;;25.64;60.07;100019.63;4857759;29;20041;-64
2023/09/20 11:39:05;;;;;;;0.80;0.57;;;;;;;25.91;59.53;100022.13;4857942;29;20076;-64
2023/09/20 11:41:32;;;;;;;1.20;0.82;;;;;;;26.13;57.71;100025.28;4859687;29;20082;-64
2023/09/20 11:43:58;;;;;;;2.05;0.70;;;;;;;26.26;57.04;100027.78;4855966;29;20117;-65
2023/09/20 11:46:33;;;;;;;0.80;0.52;;;;;;;26.40;56.87;100008.41;4860696;29;20041;-66
2023/09/20 11:49:00;;;;;;;1.38;0.60;;;;;;;26.54;56.41;100024.22;4853281;29;20050;-64
2023/09/20 11:51:26;;;;;;;1.90;0.60;;;;;;;26.62;56.41;100021.81;4854824;29;20603;-64
2023/09/20 11:53:52;;;;;;;1.85;0.82;;;;;;;26.49;55.68;100030.44;4854794;29;20053;-64
2023/09/20 11:56:29;;;;;;;2.67;1.15;;;;;;;26.45;55.93;100020.78;4853922;29;20061;-64
2023/09/20 11:59:02;;;;;;;1.38;0.80;;;;;;;26.33;56.66;100011.56;4857423;29;20052;-64
2023/09/20 12:01:33;;;;;;;2.97;0.88;;;;;;;26.29;58.08;100018.53;4858624;29;20117;-65
2023/09/20 12:04:01;;;;;;;1.30;0.70;;;;;;;26.31;58.50;100014.06;4855378;29;20041;-64
2023/09/20 12:06:26;;;;;;;1.75;0.60;;;;;;;26.02;57.95;100014.03;4857084;29;20063;-64
2023/09/20 12:08:55;;;;;;;1.70;0.80;;;;;;;26.28;57.54;100005.97;4877428;29;20135;-65
2023/09/20 12:11:22;;;;;;;2.95;0.50;;;;;;;26.25;55.90;99998.66;4910569;29;20035;-66
2023/09/20 12:13:48;;;;;;;1.85;0.90;;;;;;;26.26;55.29;100003.69;4914644;29;20046;-65
2023/09/20 12:16:14;;;;;;;1.50;0.70;;;;;;;26.39;54.90;100000.59;4916033;29;20107;-64
2023/09/20 12:18:43;;;;;;;1.23;0.50;;;;;;;26.54;54.18;99993.81;4915772;29;20076;-63